createdAt,value
2019-04-10T00:00:06.769Z,0.00
2019-04-10T00:01:09.189Z,0.00
2019-04-10T00:02:07.090Z,0.00
2019-04-10T00:03:08.259Z,0.00
2019-04-10T00:04:07.153Z,0.00
2019-04-10T00:05:07.612Z,0.00
2019-04-10T00:06:06.802Z,0.00
2019-04-10T00:07:12.785Z,0.00
2019-04-10T00:08:06.682Z,0.00
2019-04-10T00:09:06.656Z,0.00
2019-04-10T00:10:07.658Z,0.00
2019-04-10T00:11:06.664Z,0.00
2019-04-10T00:12:07.439Z,0.00
2019-04-10T00:13:06.789Z,0.00
2019-04-10T00:14:06.610Z,0.00
2019-04-10T00:15:07.516Z,0.00
2019-04-10T00:16:07.603Z,0.00
2019-04-10T00:17:06.924Z,0.00
2019-04-10T00:18:07.400Z,0.00
2019-04-10T00:19:06.648Z,0.00
2019-04-10T00:20:07.851Z,0.00
2019-04-10T00:21:07.103Z,0.00
2019-04-10T00:22:06.527Z,0.00
2019-04-10T00:23:06.872Z,0.00
2019-04-10T00:24:06.507Z,0.00
2019-04-10T00:25:06.554Z,0.00
2019-04-10T00:26:07.598Z,0.00
2019-04-10T00:27:07.177Z,0.00
2019-04-10T00:28:08.044Z,0.00
2019-04-10T00:29:07.791Z,0.00
2019-04-10T00:30:06.938Z,0.00
2019-04-10T00:31:07.352Z,0.00
2019-04-10T00:32:07.789Z,0.00
2019-04-10T00:33:06.410Z,0.00
2019-04-10T00:34:07.412Z,0.00
2019-04-10T00:35:06.520Z,0.00
2019-04-10T00:36:06.367Z,0.00
2019-04-10T00:37:19.914Z,0.00
2019-04-10T00:38:07.155Z,0.00
2019-04-10T00:39:06.471Z,0.00
2019-04-10T00:40:06.912Z,0.00
2019-04-10T00:41:06.321Z,0.00
2019-04-10T00:42:06.304Z,0.00
2019-04-10T00:43:07.009Z,0.00
2019-04-10T00:44:06.265Z,0.00
2019-04-10T00:45:06.255Z,0.00
2019-04-10T00:46:06.277Z,0.00
2019-04-10T00:47:06.593Z,0.00
2019-04-10T00:48:07.863Z,0.00
2019-04-10T00:49:07.175Z,0.00
2019-04-10T00:50:06.466Z,0.00
2019-04-10T00:51:06.756Z,0.00
2019-04-10T00:52:06.192Z,0.00
2019-04-10T00:53:06.173Z,0.00
2019-04-10T00:54:06.156Z,0.00
2019-04-10T00:55:07.789Z,0.00
2019-04-10T00:56:06.298Z,0.00
2019-04-10T00:57:06.135Z,0.00
2019-04-10T00:58:06.111Z,0.00
2019-04-10T00:59:08.738Z,0.00
2019-04-10T01:00:06.526Z,0.00
2019-04-10T01:01:06.099Z,0.00
2019-04-10T01:02:06.077Z,0.00
2019-04-10T01:03:07.060Z,0.00
2019-04-10T01:04:06.997Z,0.00
2019-04-10T01:05:06.892Z,0.00
2019-04-10T01:06:06.046Z,0.00
2019-04-10T01:07:06.027Z,0.00
2019-04-10T01:08:06.715Z,0.00
2019-04-10T01:09:06.825Z,0.00
2019-04-10T01:10:06.097Z,0.00
2019-04-10T01:11:06.622Z,0.00
2019-04-10T01:12:06.022Z,0.00
2019-04-10T01:13:05.961Z,0.00
2019-04-10T01:14:07.486Z,0.00
2019-04-10T01:15:06.679Z,0.00
2019-04-10T01:16:07.057Z,0.00
2019-04-10T01:17:06.246Z,0.00
2019-04-10T01:18:06.755Z,0.00
2019-04-10T01:19:05.950Z,0.00
2019-04-10T01:20:07.119Z,0.00
2019-04-10T01:21:06.195Z,0.00
2019-04-10T01:22:06.565Z,0.00
2019-04-10T01:23:05.971Z,0.00
2019-04-10T01:24:05.863Z,0.00
2019-04-10T01:25:06.142Z,0.00
2019-04-10T01:26:07.226Z,0.00
2019-04-10T01:27:05.796Z,0.00
2019-04-10T01:28:06.763Z,0.00
2019-04-10T01:29:06.523Z,0.00
2019-04-10T01:30:07.064Z,0.00
2019-04-10T01:31:06.756Z,0.00
2019-04-10T01:32:05.768Z,0.00
2019-04-10T01:33:06.132Z,0.00
2019-04-10T01:34:05.730Z,0.00
2019-04-10T01:35:05.869Z,0.00
2019-04-10T01:36:06.832Z,0.00
2019-04-10T01:37:05.687Z,0.00
2019-04-10T01:38:06.557Z,0.00
2019-04-10T01:39:07.762Z,0.00
2019-04-10T01:40:06.615Z,0.00
2019-04-10T01:41:06.501Z,0.00
2019-04-10T01:42:06.135Z,0.00
2019-04-10T01:43:11.425Z,0.00
2019-04-10T01:44:05.753Z,0.00
2019-04-10T01:45:05.611Z,0.00
2019-04-10T01:46:06.257Z,0.00
2019-04-10T01:47:06.699Z,0.00
2019-04-10T01:48:05.991Z,0.00
2019-04-10T01:49:05.561Z,0.00
2019-04-10T01:50:06.374Z,0.00
2019-04-10T01:51:06.621Z,0.00
2019-04-10T01:52:05.537Z,0.00
2019-04-10T01:53:06.024Z,0.00
2019-04-10T01:54:05.512Z,0.00
2019-04-10T01:55:19.134Z,0.00
2019-04-10T01:56:05.485Z,0.00
2019-04-10T01:57:06.189Z,0.00
2019-04-10T01:58:05.548Z,0.00
2019-04-10T01:59:05.655Z,0.00
2019-04-10T02:00:05.442Z,0.00
2019-04-10T02:01:05.441Z,0.00
2019-04-10T02:02:05.435Z,0.00
2019-04-10T02:03:05.644Z,0.00
2019-04-10T02:04:05.409Z,0.00
2019-04-10T02:05:06.118Z,0.00
2019-04-10T02:06:05.385Z,0.00
2019-04-10T02:07:05.620Z,0.00
2019-04-10T02:08:09.030Z,0.00
2019-04-10T02:09:05.392Z,0.00
2019-04-10T02:10:05.357Z,0.00
2019-04-10T02:11:05.323Z,0.00
2019-04-10T02:12:06.203Z,0.00
2019-04-10T02:13:05.427Z,0.00
2019-04-10T02:14:06.014Z,0.00
2019-04-10T02:15:05.298Z,0.00
2019-04-10T02:16:06.205Z,0.00
2019-04-10T02:17:06.341Z,0.00
2019-04-10T02:18:05.439Z,0.00
2019-04-10T02:19:06.009Z,0.00
2019-04-10T02:20:05.222Z,0.00
2019-04-10T02:21:05.444Z,0.00
2019-04-10T02:22:05.201Z,0.00
2019-04-10T02:23:05.861Z,0.00
2019-04-10T02:24:05.187Z,0.00
2019-04-10T02:25:05.268Z,0.00
2019-04-10T02:26:06.012Z,0.00
2019-04-10T02:27:05.792Z,0.00
2019-04-10T02:28:05.135Z,0.00
2019-04-10T02:29:05.134Z,0.00
2019-04-10T02:30:07.272Z,0.00
2019-04-10T02:31:07.003Z,0.00
2019-04-10T02:32:05.111Z,0.00
2019-04-10T02:33:06.102Z,0.00
2019-04-10T02:34:07.011Z,0.00
2019-04-10T02:35:06.918Z,0.00
2019-04-10T02:36:05.623Z,0.00
2019-04-10T02:37:06.608Z,0.00
2019-04-10T02:38:22.636Z,0.00
2019-04-10T02:39:15.110Z,0.00
2019-04-10T02:40:07.124Z,0.00
2019-04-10T02:41:05.891Z,0.00
2019-04-10T02:42:06.130Z,0.00
2019-04-10T02:43:05.619Z,0.00
2019-04-10T02:44:05.135Z,0.00
2019-04-10T02:45:06.011Z,0.00
2019-04-10T02:46:06.443Z,0.00
2019-04-10T02:47:06.320Z,0.00
2019-04-10T02:48:06.163Z,0.00
2019-04-10T02:49:06.197Z,0.00
2019-04-10T02:50:06.162Z,0.00
2019-04-10T02:51:05.457Z,0.00
2019-04-10T02:52:06.467Z,0.00
2019-04-10T02:53:05.675Z,0.00
2019-04-10T02:54:05.265Z,0.00
2019-04-10T02:55:06.020Z,0.00
2019-04-10T02:56:05.407Z,0.00
2019-04-10T02:57:05.534Z,0.00
2019-04-10T02:58:06.109Z,0.00
2019-04-10T02:59:05.086Z,0.00
2019-04-10T03:00:05.397Z,0.00
2019-04-10T03:01:04.845Z,0.00
2019-04-10T03:02:06.228Z,0.00
2019-04-10T03:03:05.540Z,0.00
2019-04-10T03:04:05.470Z,0.00
2019-04-10T03:05:04.756Z,0.00
2019-04-10T03:06:05.129Z,0.00
2019-04-10T03:07:04.740Z,0.00
2019-04-10T03:08:05.454Z,0.00
2019-04-10T03:09:19.101Z,0.00
2019-04-10T03:10:15.300Z,0.00
2019-04-10T03:11:08.588Z,0.00
2019-04-10T03:12:06.156Z,0.00
2019-04-10T03:13:04.873Z,0.00
2019-04-10T03:14:04.756Z,0.00
2019-04-10T03:15:05.755Z,0.00
2019-04-10T03:16:05.472Z,0.00
2019-04-10T03:17:06.015Z,0.00
2019-04-10T03:18:04.602Z,0.00
2019-04-10T03:19:05.374Z,0.00
2019-04-10T03:20:05.745Z,0.00
2019-04-10T03:21:05.526Z,0.00
2019-04-10T03:22:07.237Z,0.00
2019-04-10T03:23:05.242Z,0.00
2019-04-10T03:24:04.533Z,0.00
2019-04-10T03:25:04.602Z,0.00
2019-04-10T03:26:05.513Z,0.00
2019-04-10T03:27:04.512Z,0.00
2019-04-10T03:28:05.054Z,0.00
2019-04-10T03:29:05.264Z,0.00
2019-04-10T03:30:05.226Z,0.00
2019-04-10T03:31:07.140Z,0.00
2019-04-10T03:32:06.489Z,0.00
2019-04-10T03:33:07.445Z,0.00
2019-04-10T03:34:08.135Z,0.00
2019-04-10T03:35:04.425Z,0.00
2019-04-10T03:36:05.290Z,0.00
2019-04-10T03:37:04.453Z,0.00
2019-04-10T03:38:04.394Z,0.00
2019-04-10T03:39:07.200Z,0.00
2019-04-10T03:40:04.959Z,0.00
2019-04-10T03:41:04.357Z,0.00
2019-04-10T03:42:05.014Z,0.00
2019-04-10T03:43:04.328Z,0.00
2019-04-10T03:44:04.315Z,0.00
2019-04-10T03:45:05.556Z,0.00
2019-04-10T03:46:05.370Z,0.00
2019-04-10T03:47:04.304Z,0.00
2019-04-10T03:48:04.941Z,0.00
2019-04-10T03:49:05.294Z,0.00
2019-04-10T03:50:04.641Z,0.00
2019-04-10T03:51:04.252Z,0.00
2019-04-10T03:52:05.138Z,0.00
2019-04-10T03:53:05.524Z,0.00
2019-04-10T03:54:04.806Z,0.00
2019-04-10T03:55:04.937Z,0.00
2019-04-10T03:56:05.303Z,0.00
2019-04-10T03:57:05.045Z,0.00
2019-04-10T03:58:04.187Z,0.00
2019-04-10T03:59:04.197Z,0.00
2019-04-10T04:00:04.163Z,0.00
2019-04-10T04:01:04.806Z,0.00
2019-04-10T04:02:05.243Z,0.00
2019-04-10T04:03:04.404Z,0.00
2019-04-10T04:04:04.948Z,0.00
2019-04-10T04:05:04.412Z,0.00
2019-04-10T04:06:04.141Z,0.00
2019-04-10T04:07:04.987Z,0.00
2019-04-10T04:08:04.472Z,0.00
2019-04-10T04:09:09.536Z,0.00
2019-04-10T04:10:04.386Z,0.00
2019-04-10T04:11:04.930Z,0.00
2019-04-10T04:12:04.399Z,0.00
2019-04-10T04:13:05.779Z,0.00
2019-04-10T04:14:04.090Z,0.00
2019-04-10T04:15:05.366Z,0.00
2019-04-10T04:16:04.058Z,0.00
2019-04-10T04:17:04.072Z,0.00
2019-04-10T04:18:04.517Z,0.00
2019-04-10T04:19:03.991Z,0.00
2019-04-10T04:20:04.418Z,0.00
2019-04-10T04:21:04.054Z,0.00
2019-04-10T04:22:04.070Z,0.00
2019-04-10T04:23:03.917Z,0.00
2019-04-10T04:24:03.891Z,0.00
2019-04-10T04:25:04.587Z,0.00
2019-04-10T04:26:03.879Z,0.00
2019-04-10T04:27:04.820Z,0.00
2019-04-10T04:28:04.670Z,0.00
2019-04-10T04:29:03.857Z,0.00
2019-04-10T04:30:04.238Z,0.00
2019-04-10T04:31:03.829Z,0.00
2019-04-10T04:32:04.815Z,0.00
2019-04-10T04:33:04.797Z,0.00
2019-04-10T04:34:04.524Z,0.00
2019-04-10T04:35:04.629Z,0.00
2019-04-10T04:36:04.146Z,0.00
2019-04-10T04:37:04.540Z,0.00
2019-04-10T04:38:04.527Z,0.00
2019-04-10T04:39:17.997Z,0.00
2019-04-10T04:40:03.725Z,0.00
2019-04-10T04:41:04.067Z,0.00
2019-04-10T04:42:03.708Z,0.00
2019-04-10T04:43:03.757Z,0.00
2019-04-10T04:44:03.971Z,0.00
2019-04-10T04:45:03.670Z,0.00
2019-04-10T04:46:03.691Z,0.00
2019-04-10T04:47:03.672Z,0.00
2019-04-10T04:48:03.648Z,0.00
2019-04-10T04:49:03.666Z,0.00
2019-04-10T04:50:03.687Z,0.00
2019-04-10T04:51:04.035Z,0.00
2019-04-10T04:52:03.687Z,0.00
2019-04-10T04:53:04.554Z,0.00
2019-04-10T04:54:04.523Z,0.00
2019-04-10T04:55:03.938Z,0.00
2019-04-10T04:56:04.091Z,0.00
2019-04-10T04:57:04.573Z,0.00
2019-04-10T04:58:04.109Z,0.00
2019-04-10T04:59:03.655Z,0.00
2019-04-10T05:00:03.504Z,0.00
2019-04-10T05:01:04.303Z,0.00
2019-04-10T05:02:03.495Z,4.00
2019-04-10T05:03:04.079Z,4.00
2019-04-10T05:04:03.523Z,4.00
2019-04-10T05:05:04.483Z,4.00
2019-04-10T05:06:03.822Z,4.00
2019-04-10T05:07:04.243Z,4.00
2019-04-10T05:08:05.821Z,4.00
2019-04-10T05:09:04.774Z,4.00
2019-04-10T05:10:03.395Z,0.00
2019-04-10T05:11:04.334Z,0.00
2019-04-10T05:12:03.534Z,4.00
2019-04-10T05:13:04.018Z,4.00
2019-04-10T05:14:04.874Z,4.00
2019-04-10T05:15:04.422Z,4.00
2019-04-10T05:16:03.345Z,4.00
2019-04-10T05:17:04.020Z,4.00
2019-04-10T05:18:04.054Z,4.00
2019-04-10T05:19:03.784Z,4.00
2019-04-10T05:20:03.290Z,4.00
2019-04-10T05:21:03.301Z,8.00
2019-04-10T05:22:04.024Z,8.00
2019-04-10T05:23:04.057Z,8.00
2019-04-10T05:24:03.316Z,4.00
2019-04-10T05:25:04.829Z,4.00
2019-04-10T05:26:04.019Z,4.00
2019-04-10T05:27:04.021Z,4.00
2019-04-10T05:28:03.650Z,8.00
2019-04-10T05:29:03.184Z,8.00
2019-04-10T05:30:04.171Z,8.00
2019-04-10T05:31:03.225Z,8.00
2019-04-10T05:32:03.161Z,8.00
2019-04-10T05:33:04.073Z,8.00
2019-04-10T05:34:03.139Z,8.00
2019-04-10T05:35:05.807Z,8.00
2019-04-10T05:36:03.109Z,8.00
2019-04-10T05:37:03.211Z,8.00
2019-04-10T05:38:04.538Z,8.00
2019-04-10T05:39:03.252Z,12.00
2019-04-10T05:40:03.387Z,12.00
2019-04-10T05:41:03.055Z,12.00
2019-04-10T05:42:04.215Z,12.00
2019-04-10T05:43:03.757Z,8.00
2019-04-10T05:44:03.526Z,12.00
2019-04-10T05:45:03.210Z,12.00
2019-04-10T05:46:03.001Z,12.00
2019-04-10T05:47:03.360Z,12.00
2019-04-10T05:48:03.338Z,12.00
2019-04-10T05:49:02.967Z,12.00
2019-04-10T05:50:03.941Z,12.00
2019-04-10T05:51:05.895Z,12.00
2019-04-10T05:52:04.146Z,12.00
2019-04-10T05:53:02.953Z,16.00
2019-04-10T05:54:02.926Z,16.00
2019-04-10T05:55:04.145Z,16.00
2019-04-10T05:56:03.523Z,16.00
2019-04-10T05:57:03.998Z,16.00
2019-04-10T05:58:02.905Z,16.00
2019-04-10T05:59:03.525Z,20.00
2019-04-10T06:00:02.845Z,20.00
2019-04-10T06:01:02.838Z,16.00
2019-04-10T06:02:03.128Z,16.00
2019-04-10T06:03:03.947Z,20.00
2019-04-10T06:04:03.097Z,20.00
2019-04-10T06:05:02.802Z,20.00
2019-04-10T06:06:02.830Z,20.00
2019-04-10T06:07:03.547Z,20.00
2019-04-10T06:08:02.776Z,20.00
2019-04-10T06:09:02.783Z,24.00
2019-04-10T06:10:05.741Z,24.00
2019-04-10T06:11:02.740Z,20.00
2019-04-10T06:12:04.086Z,16.00
2019-04-10T06:13:02.726Z,24.00
2019-04-10T06:14:03.241Z,20.00
2019-04-10T06:15:02.695Z,28.00
2019-04-10T06:16:03.553Z,28.00
2019-04-10T06:17:04.323Z,28.00
2019-04-10T06:18:03.532Z,28.00
2019-04-10T06:19:03.718Z,32.00
2019-04-10T06:20:02.817Z,32.00
2019-04-10T06:21:03.523Z,28.00
2019-04-10T06:22:03.524Z,28.00
2019-04-10T06:23:03.247Z,32.00
2019-04-10T06:24:03.604Z,32.00
2019-04-10T06:25:03.948Z,212.00
2019-04-10T06:26:04.062Z,220.00
2019-04-10T06:27:03.734Z,220.00
2019-04-10T06:28:03.537Z,228.00
2019-04-10T06:29:02.547Z,228.00
2019-04-10T06:30:04.326Z,232.00
2019-04-10T06:31:02.516Z,232.00
2019-04-10T06:32:03.232Z,240.00
2019-04-10T06:33:04.110Z,240.00
2019-04-10T06:34:02.554Z,240.00
2019-04-10T06:35:03.724Z,248.00
2019-04-10T06:36:02.865Z,248.00
2019-04-10T06:37:02.451Z,256.00
2019-04-10T06:38:02.453Z,260.00
2019-04-10T06:39:02.746Z,264.00
2019-04-10T06:40:12.713Z,264.00
2019-04-10T06:41:02.416Z,272.00
2019-04-10T06:42:02.616Z,280.00
2019-04-10T06:43:02.381Z,280.00
2019-04-10T06:44:03.561Z,284.00
2019-04-10T06:45:04.533Z,292.00
2019-04-10T06:46:02.350Z,288.00
2019-04-10T06:47:02.343Z,284.00
2019-04-10T06:48:02.691Z,44.00
2019-04-10T06:49:03.093Z,44.00
2019-04-10T06:50:02.635Z,44.00
2019-04-10T06:51:02.301Z,48.00
2019-04-10T06:52:02.291Z,48.00
2019-04-10T06:53:04.086Z,44.00
2019-04-10T06:54:07.018Z,48.00
2019-04-10T06:55:03.018Z,48.00
2019-04-10T06:56:03.029Z,52.00
2019-04-10T06:57:02.826Z,52.00
2019-04-10T06:58:02.745Z,52.00
2019-04-10T06:59:02.548Z,52.00
2019-04-10T07:00:02.434Z,56.00
2019-04-10T07:01:02.200Z,56.00
2019-04-10T07:02:13.051Z,56.00
2019-04-10T07:03:03.091Z,60.00
2019-04-10T07:04:07.413Z,60.00
2019-04-10T07:05:05.905Z,60.00
2019-04-10T07:06:09.747Z,60.00
2019-04-10T07:07:08.886Z,60.00
2019-04-10T07:08:10.639Z,64.00
2019-04-10T07:09:03.214Z,60.00
2019-04-10T07:10:02.399Z,64.00
2019-04-10T07:11:07.958Z,64.00
2019-04-10T07:12:03.412Z,64.00
2019-04-10T07:13:05.559Z,64.00
2019-04-10T07:14:02.050Z,68.00
2019-04-10T07:15:02.398Z,68.00
2019-04-10T07:16:02.240Z,68.00
2019-04-10T07:17:05.472Z,68.00
2019-04-10T07:18:03.019Z,68.00
2019-04-10T07:19:04.763Z,76.00
2019-04-10T07:20:02.044Z,76.00
2019-04-10T07:21:02.114Z,76.00
2019-04-10T07:22:05.255Z,76.00
2019-04-10T07:23:03.033Z,80.00
2019-04-10T07:24:05.334Z,80.00
2019-04-10T07:25:02.879Z,80.00
2019-04-10T07:26:01.943Z,76.00
2019-04-10T07:27:03.515Z,80.00
2019-04-10T07:28:02.881Z,80.00
2019-04-10T07:29:02.658Z,84.00
2019-04-10T07:30:01.885Z,84.00
2019-04-10T07:31:06.760Z,84.00
2019-04-10T07:32:04.802Z,80.00
2019-04-10T07:33:01.842Z,84.00
2019-04-10T07:34:03.333Z,84.00
2019-04-10T07:35:03.289Z,84.00
2019-04-10T07:36:05.598Z,84.00
2019-04-10T07:37:02.255Z,88.00
2019-04-10T07:38:02.528Z,88.00
2019-04-10T07:39:03.434Z,88.00
2019-04-10T07:40:03.317Z,88.00
2019-04-10T07:41:07.124Z,88.00
2019-04-10T07:42:02.053Z,88.00
2019-04-10T07:43:02.140Z,88.00
2019-04-10T07:44:01.825Z,88.00
2019-04-10T07:45:01.765Z,88.00
2019-04-10T07:46:01.714Z,88.00
2019-04-10T07:47:02.656Z,88.00
2019-04-10T07:48:02.526Z,92.00
2019-04-10T07:49:02.970Z,92.00
2019-04-10T07:50:03.212Z,92.00
2019-04-10T07:51:02.821Z,96.00
2019-04-10T07:52:02.457Z,92.00
2019-04-10T07:53:01.995Z,92.00
2019-04-10T07:54:01.903Z,96.00
2019-04-10T07:55:01.610Z,96.00
2019-04-10T07:56:06.793Z,96.00
2019-04-10T07:57:02.055Z,96.00
2019-04-10T07:58:02.695Z,96.00
2019-04-10T07:59:02.692Z,96.00
2019-04-10T08:00:03.137Z,96.00
2019-04-10T08:01:01.560Z,96.00
2019-04-10T08:02:02.531Z,100.00
2019-04-10T08:03:01.520Z,100.00
2019-04-10T08:04:01.896Z,104.00
2019-04-10T08:05:02.385Z,100.00
2019-04-10T08:06:02.400Z,100.00
2019-04-10T08:07:03.026Z,104.00
2019-04-10T08:08:01.474Z,100.00
2019-04-10T08:09:01.470Z,104.00
2019-04-10T08:10:01.506Z,104.00
2019-04-10T08:11:01.624Z,104.00
2019-04-10T08:12:01.434Z,104.00
2019-04-10T08:13:02.409Z,108.00
2019-04-10T08:14:01.392Z,104.00
2019-04-10T08:15:01.397Z,104.00
2019-04-10T08:16:02.771Z,108.00
2019-04-10T08:17:01.360Z,108.00
2019-04-10T08:18:02.445Z,108.00
2019-04-10T08:19:01.884Z,108.00
2019-04-10T08:20:02.069Z,112.00
2019-04-10T08:21:01.335Z,108.00
2019-04-10T08:22:01.324Z,112.00
2019-04-10T08:23:01.547Z,112.00
2019-04-10T08:24:02.531Z,108.00
2019-04-10T08:25:02.280Z,108.00
2019-04-10T08:26:01.276Z,112.00
2019-04-10T08:27:01.300Z,104.00
2019-04-10T08:28:01.241Z,104.00
2019-04-10T08:29:02.040Z,104.00
2019-04-10T08:30:03.202Z,100.00
2019-04-10T08:31:01.224Z,104.00
2019-04-10T08:32:02.052Z,108.00
2019-04-10T08:33:02.779Z,108.00
2019-04-10T08:34:01.227Z,112.00
2019-04-10T08:35:02.050Z,112.00
2019-04-10T08:36:01.244Z,112.00
2019-04-10T08:37:01.737Z,112.00
2019-04-10T08:38:01.410Z,116.00
2019-04-10T08:39:02.624Z,116.00
2019-04-10T08:40:01.146Z,120.00
2019-04-10T08:41:02.873Z,88.00
2019-04-10T08:42:02.071Z,108.00
2019-04-10T08:43:02.054Z,112.00
2019-04-10T08:44:02.284Z,108.00
2019-04-10T08:45:02.970Z,112.00
2019-04-10T08:46:02.041Z,108.00
2019-04-10T08:47:01.068Z,112.00
2019-04-10T08:48:01.458Z,112.00
2019-04-10T08:49:01.029Z,116.00
2019-04-10T08:50:01.464Z,112.00
2019-04-10T08:51:01.103Z,112.00
2019-04-10T08:52:01.063Z,112.00
2019-04-10T08:53:02.078Z,116.00
2019-04-10T08:54:00.972Z,116.00
2019-04-10T08:55:01.893Z,112.00
2019-04-10T08:56:00.934Z,116.00
2019-04-10T08:57:01.140Z,116.00
2019-04-10T08:58:00.912Z,120.00
2019-04-10T08:59:00.904Z,120.00
2019-04-10T09:00:00.906Z,120.00
2019-04-10T09:01:00.908Z,120.00
2019-04-10T09:02:01.979Z,120.00
2019-04-10T09:03:00.851Z,124.00
2019-04-10T09:04:01.499Z,124.00
2019-04-10T09:05:01.685Z,128.00
2019-04-10T09:06:02.577Z,128.00
2019-04-10T09:07:03.672Z,120.00
2019-04-10T09:08:02.464Z,124.00
2019-04-10T09:09:01.399Z,120.00
2019-04-10T09:10:01.829Z,124.00
2019-04-10T09:11:01.011Z,124.00
2019-04-10T09:12:01.827Z,120.00
2019-04-10T09:13:00.737Z,124.00
2019-04-10T09:14:01.535Z,124.00
2019-04-10T09:15:01.700Z,100.00
2019-04-10T09:16:02.510Z,124.00
2019-04-10T09:17:00.801Z,124.00
2019-04-10T09:18:01.850Z,124.00
2019-04-10T09:19:01.568Z,124.00
2019-04-10T09:20:00.720Z,124.00
2019-04-10T09:21:00.694Z,124.00
2019-04-10T09:22:00.660Z,128.00
2019-04-10T09:23:18.713Z,124.00
2019-04-10T09:24:00.784Z,128.00
2019-04-10T09:25:02.728Z,128.00
2019-04-10T09:26:01.892Z,128.00
2019-04-10T09:27:00.624Z,128.00
2019-04-10T09:28:02.287Z,128.00
2019-04-10T09:29:00.565Z,132.00
2019-04-10T09:30:02.719Z,128.00
2019-04-10T09:31:01.680Z,132.00
2019-04-10T09:32:00.533Z,132.00
2019-04-10T09:33:01.660Z,132.00
2019-04-10T09:34:01.228Z,136.00
2019-04-10T09:35:00.501Z,136.00
2019-04-10T09:36:00.646Z,132.00
2019-04-10T09:37:00.495Z,132.00
2019-04-10T09:38:00.594Z,136.00
2019-04-10T09:39:01.248Z,136.00
2019-04-10T09:40:01.035Z,136.00
2019-04-10T09:41:01.546Z,136.00
2019-04-10T09:42:01.326Z,136.00
2019-04-10T09:43:00.429Z,140.00
2019-04-10T09:44:01.036Z,132.00
2019-04-10T09:45:00.465Z,132.00
2019-04-10T09:46:00.378Z,132.00
2019-04-10T09:47:00.370Z,132.00
2019-04-10T09:48:00.550Z,136.00
2019-04-10T09:49:00.505Z,132.00
2019-04-10T09:50:00.369Z,136.00
2019-04-10T09:51:00.347Z,136.00
2019-04-10T09:52:00.688Z,132.00
2019-04-10T09:53:00.314Z,136.00
2019-04-10T09:54:01.469Z,132.00
2019-04-10T09:55:00.338Z,136.00
2019-04-10T09:56:01.116Z,136.00
2019-04-10T09:57:01.245Z,136.00
2019-04-10T09:58:00.570Z,136.00
2019-04-10T09:59:01.049Z,132.00
2019-04-10T10:00:00.976Z,136.00
2019-04-10T10:01:01.610Z,132.00
2019-04-10T10:02:00.496Z,136.00
2019-04-10T10:03:01.527Z,128.00
2019-04-10T10:04:01.201Z,116.00
2019-04-10T10:05:00.168Z,128.00
2019-04-10T10:06:01.816Z,128.00
2019-04-10T10:07:00.165Z,128.00
2019-04-10T10:08:00.248Z,124.00
2019-04-10T10:09:00.514Z,120.00
2019-04-10T10:10:01.326Z,120.00
2019-04-10T10:11:00.122Z,112.00
2019-04-10T10:12:01.150Z,112.00
2019-04-10T10:13:01.219Z,116.00
2019-04-10T10:14:00.071Z,120.00
2019-04-10T10:15:00.226Z,124.00
2019-04-10T10:16:00.814Z,124.00
2019-04-10T10:17:00.213Z,128.00
2019-04-10T10:18:01.211Z,128.00
2019-04-10T10:19:00.031Z,124.00
2019-04-10T10:20:00.005Z,128.00
2019-04-10T10:21:00.041Z,116.00
2019-04-10T10:22:02.275Z,128.00
2019-04-10T10:23:01.216Z,128.00
2019-04-10T10:24:00.541Z,124.00
2019-04-10T10:24:59.949Z,124.00
2019-04-10T10:25:59.973Z,124.00
2019-04-10T10:26:59.938Z,128.00
2019-04-10T10:28:00.090Z,128.00
2019-04-10T10:29:00.678Z,128.00
2019-04-10T10:30:00.562Z,132.00
2019-04-10T10:31:00.568Z,128.00
2019-04-10T10:32:00.370Z,120.00
2019-04-10T10:32:59.886Z,132.00
2019-04-10T10:33:59.857Z,132.00
2019-04-10T10:35:00.943Z,132.00
2019-04-10T10:35:59.907Z,132.00
2019-04-10T10:37:00.126Z,132.00
2019-04-10T10:38:01.062Z,132.00
2019-04-10T10:39:06.819Z,132.00
2019-04-10T10:39:59.790Z,136.00
2019-04-10T10:40:59.807Z,132.00
2019-04-10T10:41:59.770Z,136.00
2019-04-10T10:43:00.299Z,132.00
2019-04-10T10:44:00.609Z,128.00
2019-04-10T10:45:00.653Z,128.00
2019-04-10T10:46:00.874Z,124.00
2019-04-10T10:47:00.037Z,132.00
2019-04-10T10:47:59.695Z,128.00
2019-04-10T10:49:00.088Z,128.00
2019-04-10T10:49:59.674Z,132.00
2019-04-10T10:50:59.674Z,132.00
2019-04-10T10:51:59.665Z,108.00
2019-04-10T10:52:59.783Z,128.00
2019-04-10T10:54:02.505Z,128.00
2019-04-10T10:54:59.619Z,132.00
2019-04-10T10:56:00.095Z,132.00
2019-04-10T10:57:00.606Z,132.00
2019-04-10T10:57:59.749Z,132.00
2019-04-10T10:59:00.877Z,132.00
2019-04-10T11:00:00.554Z,132.00
2019-04-10T11:01:00.553Z,128.00
2019-04-10T11:02:00.282Z,128.00
2019-04-10T11:03:00.222Z,128.00
2019-04-10T11:03:59.540Z,132.00
2019-04-10T11:05:03.909Z,132.00
2019-04-10T11:06:00.494Z,132.00
2019-04-10T11:07:01.177Z,132.00
2019-04-10T11:07:59.904Z,128.00
2019-04-10T11:08:59.681Z,132.00
2019-04-10T11:10:01.169Z,132.00
2019-04-10T11:11:00.885Z,132.00
2019-04-10T11:12:00.139Z,132.00
2019-04-10T11:13:00.107Z,128.00
2019-04-10T11:13:59.580Z,132.00
2019-04-10T11:14:59.562Z,132.00
2019-04-10T11:16:03.653Z,132.00
2019-04-10T11:16:59.383Z,128.00
2019-04-10T11:18:00.253Z,132.00
2019-04-10T11:19:00.060Z,128.00
2019-04-10T11:19:59.610Z,132.00
2019-04-10T11:21:04.665Z,128.00
2019-04-10T11:21:59.346Z,132.00
2019-04-10T11:23:00.383Z,128.00
2019-04-10T11:24:00.860Z,132.00
2019-04-10T11:25:00.212Z,128.00
2019-04-10T11:25:59.782Z,128.00
2019-04-10T11:27:00.141Z,128.00
2019-04-10T11:28:00.185Z,128.00
2019-04-10T11:29:01.256Z,128.00
2019-04-10T11:29:59.890Z,128.00
2019-04-10T11:31:01.250Z,132.00
2019-04-10T11:32:00.003Z,128.00
2019-04-10T11:33:00.049Z,132.00
2019-04-10T11:34:00.138Z,132.00
2019-04-10T11:34:59.563Z,132.00
2019-04-10T11:36:00.141Z,132.00
2019-04-10T11:37:16.717Z,128.00
2019-04-10T11:38:00.836Z,128.00
2019-04-10T11:40:01.023Z,128.00
2019-04-10T11:41:00.099Z,124.00
2019-04-10T11:42:00.052Z,132.00
2019-04-10T11:43:02.423Z,128.00
2019-04-10T11:44:00.322Z,128.00
2019-04-10T11:44:59.396Z,128.00
2019-04-10T11:46:02.597Z,132.00
2019-04-10T11:46:59.096Z,128.00
2019-04-10T11:48:01.546Z,128.00
2019-04-10T11:49:00.754Z,124.00
2019-04-10T11:50:01.621Z,208.00
2019-04-10T11:51:01.145Z,204.00
2019-04-10T11:51:59.988Z,204.00
2019-04-10T11:53:01.597Z,208.00
2019-04-10T11:54:01.618Z,204.00
2019-04-10T11:55:08.786Z,212.00
2019-04-10T11:56:02.802Z,208.00
2019-04-10T11:57:02.870Z,208.00
2019-04-10T11:57:59.970Z,208.00
2019-04-10T11:58:59.317Z,212.00
2019-04-10T12:00:01.242Z,204.00
2019-04-10T12:01:00.166Z,204.00
2019-04-10T12:02:03.522Z,208.00
2019-04-10T12:03:00.854Z,208.00
2019-04-10T12:04:00.307Z,208.00
2019-04-10T12:05:03.460Z,208.00
2019-04-10T12:06:07.080Z,208.00
2019-04-10T12:07:03.818Z,208.00
2019-04-10T12:08:28.325Z,212.00
2019-04-10T12:12:01.603Z,212.00
2019-04-10T12:13:01.832Z,208.00
2019-04-10T12:14:02.977Z,208.00
2019-04-10T12:15:01.908Z,208.00
2019-04-10T12:16:05.107Z,208.00
2019-04-10T12:16:59.559Z,212.00
2019-04-10T12:17:58.880Z,208.00
2019-04-10T12:18:59.229Z,204.00
2019-04-10T12:20:00.537Z,208.00
2019-04-10T12:20:59.721Z,204.00
2019-04-10T12:21:58.689Z,204.00
2019-04-10T12:22:58.762Z,204.00
2019-04-10T12:23:59.563Z,204.00
2019-04-10T12:24:58.652Z,204.00
2019-04-10T12:25:59.047Z,204.00
2019-04-10T12:26:58.630Z,208.00
2019-04-10T12:27:59.562Z,204.00
2019-04-10T12:28:58.603Z,204.00
2019-04-10T12:29:59.246Z,200.00
2019-04-10T12:30:59.494Z,200.00
2019-04-10T12:31:58.624Z,200.00
2019-04-10T12:32:58.558Z,196.00
2019-04-10T12:34:00.017Z,204.00
2019-04-10T12:34:58.540Z,204.00
2019-04-10T12:35:58.534Z,204.00
2019-04-10T12:36:58.784Z,208.00
2019-04-10T12:38:02.815Z,204.00
2019-04-10T12:38:58.495Z,208.00
2019-04-10T12:39:59.241Z,208.00
2019-04-10T12:40:59.206Z,208.00
2019-04-10T12:41:59.473Z,208.00
2019-04-10T12:42:58.806Z,204.00
2019-04-10T12:43:59.116Z,196.00
2019-04-10T12:44:58.422Z,200.00
2019-04-10T12:45:58.597Z,200.00
2019-04-10T12:46:59.495Z,204.00
2019-04-10T12:47:58.588Z,200.00
2019-04-10T12:49:00.106Z,200.00
2019-04-10T12:49:58.368Z,200.00
2019-04-10T12:50:58.368Z,200.00
2019-04-10T12:51:58.440Z,204.00
2019-04-10T12:52:58.852Z,200.00
2019-04-10T12:53:58.400Z,200.00
2019-04-10T12:54:58.313Z,200.00
2019-04-10T12:55:59.784Z,200.00
2019-04-10T12:56:58.830Z,200.00